createdAt,value
2019-01-10T00:02:41.650Z,3.80
2019-01-10T00:07:48.235Z,3.80
2019-01-10T00:12:54.384Z,3.80
2019-01-10T00:18:00.560Z,3.80
2019-01-10T00:23:06.842Z,3.70
2019-01-10T00:28:13.220Z,3.70
2019-01-10T00:33:19.292Z,3.70
2019-01-10T00:38:25.391Z,3.60
2019-01-10T00:43:31.623Z,3.60
2019-01-10T00:48:37.703Z,3.60
2019-01-10T00:53:43.834Z,3.60
2019-01-10T00:58:49.904Z,3.60
2019-01-10T01:03:56.322Z,3.60
2019-01-10T01:09:02.522Z,3.70
2019-01-10T01:14:09.269Z,3.60
2019-01-10T01:19:15.344Z,3.70
2019-01-10T01:24:21.398Z,3.70
2019-01-10T01:29:27.579Z,3.60
2019-01-10T01:34:33.897Z,3.60
2019-01-10T01:39:40.082Z,3.70
2019-01-10T01:44:46.194Z,3.70
2019-01-10T01:49:52.318Z,3.80
2019-01-10T01:54:58.383Z,3.80
2019-01-10T02:00:09.220Z,3.90
2019-01-10T02:05:15.782Z,3.80
2019-01-10T02:10:27.288Z,3.60
2019-01-10T02:15:33.398Z,3.70
2019-01-10T02:20:39.618Z,3.80
2019-01-10T02:25:45.773Z,3.70
2019-01-10T02:30:51.922Z,3.60
2019-01-10T02:35:58.171Z,3.60
2019-01-10T02:41:04.290Z,3.70
2019-01-10T02:46:10.377Z,3.70
2019-01-10T02:51:16.536Z,3.80
2019-01-10T02:56:23.091Z,3.80
2019-01-10T03:01:29.624Z,3.80
2019-01-10T03:06:35.952Z,3.80
2019-01-10T03:11:42.498Z,3.90
2019-01-10T03:16:48.786Z,4.00
2019-01-10T03:21:55.059Z,3.80
2019-01-10T03:27:01.342Z,3.90
2019-01-10T03:32:07.625Z,3.90
2019-01-10T03:37:13.827Z,3.80
2019-01-10T03:42:20.136Z,3.80
2019-01-10T03:47:26.317Z,3.80
2019-01-10T03:52:33.822Z,3.90
2019-01-10T03:57:40.112Z,3.90
2019-01-10T04:02:46.216Z,4.10
2019-01-10T04:07:52.775Z,4.10
2019-01-10T04:12:58.933Z,4.10
2019-01-10T04:18:05.031Z,4.00
2019-01-10T04:23:11.072Z,4.00
2019-01-10T04:28:17.240Z,4.00
2019-01-10T04:33:23.368Z,4.00
2019-01-10T04:38:29.565Z,4.10
2019-01-10T04:43:35.851Z,4.10
2019-01-10T04:48:42.082Z,4.10
2019-01-10T04:53:48.202Z,4.20
2019-01-10T04:58:54.303Z,4.20
2019-01-10T05:04:00.389Z,4.10
2019-01-10T05:09:07.815Z,4.10
2019-01-10T05:14:16.646Z,4.00
2019-01-10T05:19:21.613Z,4.10
2019-01-10T05:24:27.692Z,4.10
2019-01-10T05:29:33.820Z,4.20
2019-01-10T05:34:39.987Z,4.30
2019-01-10T05:39:47.589Z,4.20
2019-01-10T05:44:54.038Z,4.20
2019-01-10T05:50:00.202Z,4.00
2019-01-10T05:55:08.598Z,4.10
2019-01-10T06:00:20.610Z,4.20
2019-01-10T06:05:26.819Z,4.30
2019-01-10T06:10:32.988Z,4.30
2019-01-10T06:15:39.159Z,4.20
2019-01-10T06:20:45.279Z,4.20
2019-01-10T06:25:51.361Z,4.30
2019-01-10T06:30:57.477Z,4.30
2019-01-10T06:36:03.602Z,4.30
2019-01-10T06:41:09.727Z,4.40
2019-01-10T06:46:15.885Z,4.40
2019-01-10T06:51:21.958Z,4.40
2019-01-10T06:56:28.056Z,4.30
2019-01-10T07:01:34.269Z,4.30
2019-01-10T07:06:40.457Z,4.30
2019-01-10T07:11:46.510Z,4.40
2019-01-10T07:16:53.697Z,4.50
2019-01-10T07:22:00.098Z,4.60
2019-01-10T07:27:06.382Z,4.60
2019-01-10T07:32:12.584Z,4.70
2019-01-10T07:37:18.764Z,4.70
2019-01-10T07:42:24.949Z,4.70
2019-01-10T07:47:47.165Z,4.60
2019-01-10T07:52:53.324Z,4.60
2019-01-10T07:57:59.434Z,4.80
2019-01-10T08:03:08.683Z,4.70
2019-01-10T08:08:14.708Z,4.60
2019-01-10T08:13:20.804Z,4.60
2019-01-10T08:18:26.950Z,4.70
2019-01-10T08:23:33.100Z,4.80
2019-01-10T08:28:39.195Z,4.80
2019-01-10T08:33:45.286Z,4.90
2019-01-10T08:38:51.382Z,5.00
2019-01-10T08:43:57.505Z,4.90
2019-01-10T08:49:03.568Z,4.90
2019-01-10T08:54:09.758Z,4.90
2019-01-10T08:59:15.917Z,5.00
2019-01-10T09:04:22.142Z,5.00
2019-01-10T09:09:28.286Z,5.00
2019-01-10T09:14:34.433Z,5.10
2019-01-10T09:19:40.474Z,5.20
2019-01-10T09:24:46.810Z,5.20
2019-01-10T09:29:52.889Z,5.20
2019-01-10T09:34:59.242Z,5.20
2019-01-10T09:40:06.544Z,5.30
2019-01-10T09:45:15.419Z,5.40
2019-01-10T09:50:22.406Z,5.40
2019-01-10T09:55:28.723Z,5.40
2019-01-10T10:00:34.882Z,5.50
2019-01-10T10:05:41.102Z,5.60
2019-01-10T10:10:47.181Z,5.60
2019-01-10T10:15:53.250Z,5.50
2019-01-10T10:20:59.341Z,5.60
2019-01-10T10:26:05.456Z,5.70
2019-01-10T10:31:13.230Z,5.80
2019-01-10T10:36:19.371Z,5.80
2019-01-10T10:41:25.605Z,5.90
2019-01-10T10:46:31.747Z,5.90
2019-01-10T10:51:37.831Z,6.00
2019-01-10T10:56:43.967Z,6.10
2019-01-10T11:02:02.186Z,6.20
2019-01-10T11:07:08.374Z,6.20
2019-01-10T11:12:14.467Z,6.30
2019-01-10T11:17:20.553Z,6.30
2019-01-10T11:22:27.806Z,6.30
2019-01-10T11:27:34.818Z,6.30
2019-01-10T11:32:40.979Z,6.40
2019-01-10T11:37:47.118Z,6.30
2019-01-10T11:42:53.194Z,6.20
2019-01-10T11:47:59.304Z,6.30
2019-01-10T11:53:05.474Z,6.20
2019-01-10T11:58:13.211Z,6.30
2019-01-10T12:03:19.315Z,6.40
2019-01-10T12:08:25.403Z,6.40
2019-01-10T12:13:31.511Z,6.50
2019-01-10T12:18:37.591Z,6.60
2019-01-10T12:23:43.740Z,6.50
2019-01-10T12:28:49.943Z,6.50
2019-01-10T12:33:56.117Z,6.50
2019-01-10T12:39:03.470Z,6.40
2019-01-10T12:44:09.975Z,6.50
2019-01-10T12:49:16.050Z,6.50
2019-01-10T12:54:22.222Z,6.60
2019-01-10T12:59:28.503Z,6.60
2019-01-10T13:04:34.822Z,6.70
2019-01-10T13:09:40.826Z,6.70
2019-01-10T13:14:47.007Z,6.70
2019-01-10T13:19:53.192Z,6.80
2019-01-10T13:24:59.325Z,6.80
2019-01-10T13:30:08.085Z,6.70
2019-01-10T13:35:14.485Z,6.60
2019-01-10T13:40:20.857Z,6.70
2019-01-10T13:45:27.109Z,6.60
2019-01-10T13:50:33.464Z,6.70
2019-01-10T13:55:39.552Z,6.60
2019-01-10T14:00:45.776Z,6.60
2019-01-10T14:05:51.902Z,6.60
2019-01-10T14:10:58.047Z,6.70
2019-01-10T14:16:04.239Z,6.60
2019-01-10T14:21:10.482Z,6.60
2019-01-10T14:26:16.712Z,6.50
2019-01-10T14:31:22.934Z,6.60
2019-01-10T14:36:29.031Z,6.60
2019-01-10T14:41:35.086Z,6.50
2019-01-10T14:46:41.171Z,6.50
2019-01-10T14:51:47.242Z,6.50
2019-01-10T14:56:57.925Z,6.40
2019-01-10T15:02:01.095Z,6.40
2019-01-10T15:07:07.282Z,6.50
2019-01-10T15:12:13.530Z,6.40
2019-01-10T15:17:19.587Z,6.30
2019-01-10T15:22:25.679Z,6.30
2019-01-10T15:27:31.800Z,6.40
2019-01-10T15:32:37.910Z,6.40
2019-01-10T15:37:43.982Z,6.30
2019-01-10T15:42:50.050Z,6.30
2019-01-10T15:47:56.175Z,6.20
2019-01-10T15:53:02.373Z,6.30
2019-01-10T15:58:08.640Z,6.30
2019-01-10T16:03:14.807Z,6.20
2019-01-10T16:08:20.893Z,6.10
2019-01-10T16:13:27.083Z,6.20
2019-01-10T16:18:34.522Z,6.20
2019-01-10T16:23:40.751Z,6.30
2019-01-10T16:28:46.927Z,6.20
2019-01-10T16:33:53.028Z,6.10
2019-01-10T16:38:59.080Z,6.20
2019-01-10T16:44:05.444Z,6.10
2019-01-10T16:49:11.629Z,6.20
2019-01-10T16:54:17.793Z,6.10
2019-01-10T16:59:23.956Z,6.20
2019-01-10T17:04:30.090Z,6.20
2019-01-10T17:09:36.288Z,6.20
2019-01-10T17:14:42.426Z,6.10
2019-01-10T17:19:48.544Z,6.10
2019-01-10T17:24:57.098Z,6.10
2019-01-10T17:30:03.459Z,6.00
2019-01-10T17:35:12.726Z,6.00
2019-01-10T17:40:19.802Z,6.00
2019-01-10T17:45:29.463Z,5.90
2019-01-10T17:50:36.831Z,5.90
2019-01-10T17:55:42.920Z,5.90
2019-01-10T18:00:49.716Z,5.80
2019-01-10T18:05:55.984Z,5.70
2019-01-10T18:11:02.187Z,5.60
2019-01-10T18:16:08.265Z,5.50
2019-01-10T18:21:15.067Z,5.50
2019-01-10T18:26:21.335Z,5.40
2019-01-10T18:31:27.477Z,5.50
2019-01-10T18:36:33.840Z,5.40
2019-01-10T18:41:39.998Z,5.30
2019-01-10T18:46:46.150Z,5.30
2019-01-10T18:51:52.343Z,5.50
2019-01-10T18:56:58.476Z,5.60
2019-01-10T19:02:04.664Z,5.50
2019-01-10T19:07:10.891Z,5.50
2019-01-10T19:12:17.014Z,5.50
2019-01-10T19:17:26.172Z,5.50
2019-01-10T19:22:31.377Z,5.50
2019-01-10T19:27:37.577Z,5.50
2019-01-10T19:32:43.667Z,5.40
2019-01-10T19:37:51.414Z,5.40
2019-01-10T19:42:57.652Z,5.30
2019-01-10T19:48:09.542Z,5.40
2019-01-10T19:53:11.674Z,5.30
2019-01-10T19:58:17.781Z,5.30
2019-01-10T20:03:24.120Z,5.30
2019-01-10T20:08:30.318Z,5.30
2019-01-10T20:13:36.702Z,5.40
2019-01-10T20:18:42.905Z,5.30
2019-01-10T20:23:49.151Z,5.30
2019-01-10T20:28:55.354Z,5.40
2019-01-10T20:34:01.534Z,5.20
2019-01-10T20:39:09.023Z,5.20
2019-01-10T20:44:15.162Z,5.10
2019-01-10T20:49:26.766Z,5.20
2019-01-10T20:54:33.131Z,5.10
2019-01-10T20:59:39.302Z,5.20
2019-01-10T21:04:45.629Z,5.20
2019-01-10T21:09:51.805Z,5.20
2019-01-10T21:14:57.883Z,5.20
2019-01-10T21:20:04.726Z,5.20
2019-01-10T21:25:11.479Z,5.30
2019-01-10T21:30:18.916Z,5.10
2019-01-10T21:35:25.098Z,5.30
2019-01-10T21:40:32.537Z,5.20
2019-01-10T21:45:40.408Z,5.20
2019-01-10T21:50:46.607Z,5.30
2019-01-10T21:55:52.799Z,5.20
2019-01-10T22:00:58.906Z,5.20
2019-01-10T22:06:05.082Z,5.20
2019-01-10T22:11:11.288Z,5.20
2019-01-10T22:16:17.405Z,5.30
2019-01-10T22:21:23.617Z,5.30
2019-01-10T22:26:29.750Z,5.20
2019-01-10T22:31:39.142Z,5.30
2019-01-10T22:36:45.843Z,5.30
2019-01-10T22:41:52.270Z,5.40
2019-01-10T22:47:00.069Z,5.40
2019-01-10T22:52:07.802Z,5.50
2019-01-10T22:57:13.973Z,5.50
2019-01-10T23:02:20.087Z,5.50
2019-01-10T23:07:26.966Z,5.60
2019-01-10T23:12:35.091Z,5.70
2019-01-10T23:18:00.564Z,5.80
2019-01-10T23:23:08.734Z,5.80
2019-01-10T23:28:14.912Z,5.80
2019-01-10T23:33:21.170Z,5.80
2019-01-10T23:38:27.292Z,5.90
2019-01-10T23:43:33.980Z,5.90
2019-01-10T23:48:41.216Z,6.00
2019-01-10T23:53:47.474Z,6.00
2019-01-10T23:59:05.219Z,6.00
